Time;durP1;ratioP1;P1;durP2;ratioP2;P2;SDS_P1;SDS_P2;PMS_P1;PMS_P2;Temp;Humidity;BMP_temperature;BMP_pressure;BME280_temperature;BME280_humidity;BME280_pressure;Samples;Min_cycle;Max_cycle;Signal;HPM_P1;HPM_P2
2023/08/21 07:28:49;;;;;;;6.67;3.00;;;21.20;1.00;;;;;;6228537;22;20203;-91
2023/08/21 07:31:15;;;;;;;10.87;3.60;;;21.30;1.00;;;;;;6249620;23;20163;-92
2023/08/21 07:33:40;;;;;;;10.30;3.83;;;21.40;1.00;;;;;;6249778;22;20176;-94
2023/08/21 07:36:06;;;;;;;8.57;3.10;;;21.40;1.00;;;;;;6249747;22;20663;-90
2023/08/21 07:38:32;;;;;;;5.53;2.70;;;22.40;1.00;;;;;;6247820;23;20190;-90
2023/08/21 07:41:10;;;;;;;9.13;3.00;;;22.20;1.00;;;;;;6250557;23;20159;-92
2023/08/21 07:43:36;;;;;;;11.00;3.63;;;21.90;1.00;;;;;;6248213;23;20242;-94
2023/08/21 07:46:03;;;;;;;10.70;3.30;;;21.70;1.00;;;;;;6248246;23;20195;-92
2023/08/21 07:48:29;;;;;;;11.13;3.40;;;21.70;1.00;;;;;;6248045;23;20159;-92
2023/08/21 07:50:55;;;;;;;8.13;3.30;;;21.80;1.00;;;;;;6248507;23;20155;-92
2023/08/21 07:53:20;;;;;;;10.20;3.40;;;21.90;1.00;;;;;;6249019;23;20175;-91
2023/08/21 07:55:46;;;;;;;8.73;3.10;;;22.00;1.00;;;;;;6262045;23;20556;-92
2023/08/21 07:58:12;;;;;;;8.80;3.60;;;22.10;1.00;;;;;;6250160;23;20242;-90
2023/08/21 08:00:39;;;;;;;10.13;3.33;;;22.00;1.00;;;;;;6249747;23;20159;-89
2023/08/21 08:03:06;;;;;;;12.10;3.40;;;22.80;1.00;;;;;;6224907;23;20187;-91
2023/08/21 08:05:33;;;;;;;9.00;4.00;;;22.30;1.00;;;;;;6249535;23;20192;-90
2023/08/21 08:07:58;;;;;;;8.47;3.03;;;22.40;1.00;;;;;;6251056;22;20152;-90
2023/08/21 08:10:24;;;;;;;11.43;3.70;;;22.60;1.00;;;;;;6224239;23;20163;-92
2023/08/21 08:12:50;;;;;;;7.93;3.70;;;23.00;1.00;;;;;;6249751;23;20198;-92
2023/08/21 08:15:16;;;;;;;6.43;3.00;;;22.80;1.00;;;;;;6250598;23;20591;-91
2023/08/21 08:17:42;;;;;;;6.57;3.40;;;23.00;1.00;;;;;;6250012;23;20167;-91
2023/08/21 08:20:08;;;;;;;6.33;3.47;;;23.00;1.00;;;;;;6250933;23;20524;-92
2023/08/21 08:22:33;;;;;;;8.83;3.57;;;23.10;1.00;;;;;;6250645;23;20163;-93
2023/08/21 08:24:59;;;;;;;6.40;3.27;;;23.30;1.00;;;;;;6249650;23;20647;-90
2023/08/21 08:27:25;;;;;;;10.03;3.73;;;23.30;1.00;;;;;;6249881;23;20155;-91
2023/08/21 08:29:54;;;;;;;9.73;3.13;;;23.60;1.00;;;;;;6252272;22;20167;-92
2023/08/21 08:32:20;;;;;;;7.93;3.90;;;23.80;1.00;;;;;;6250639;23;20164;-90
2023/08/21 08:34:46;;;;;;;7.77;3.53;;;24.00;1.00;;;;;;6218980;23;20214;-45
2023/08/21 08:37:12;;;;;;;6.50;3.50;;;24.00;99.90;;;;;;6246917;23;20155;-46
2023/08/21 08:39:37;;;;;;;12.27;3.40;;;23.90;1.00;;;;;;6246035;23;20155;-45
2023/08/21 08:42:05;;;;;;;5.60;3.20;;;24.00;1.00;;;;;;6219259;23;20235;-46
2023/08/21 08:44:32;;;;;;;7.90;3.20;;;24.10;1.00;;;;;;6246362;23;20213;-45
2023/08/21 08:46:59;;;;;;;8.00;3.27;;;24.20;1.00;;;;;;6246362;23;20183;-44
2023/08/21 08:49:25;;;;;;;8.93;3.17;;;24.30;1.00;;;;;;6246287;23;20155;-45
2023/08/21 08:51:51;;;;;;;7.67;3.30;;;24.30;1.00;;;;;;6219144;23;20166;-45
2023/08/21 08:54:18;;;;;;;5.40;3.10;;;24.30;99.90;;;;;;6245790;23;20238;-46
2023/08/21 08:56:44;;;;;;;6.90;2.80;;;24.20;1.00;;;;;;6246332;23;20155;-45
2023/08/21 08:59:10;;;;;;;7.93;3.43;;;24.30;99.90;;;;;;6246238;23;20209;-45
2023/08/21 09:01:35;;;;;;;12.43;3.53;;;24.30;1.00;;;;;;6219133;23;20209;-45
2023/08/21 09:04:02;;;;;;;8.60;3.17;;;24.30;1.00;;;;;;6246179;23;20166;-45
2023/08/21 09:06:28;;;;;;;6.50;3.57;;;24.30;1.00;;;;;;6219089;23;20679;-45
2023/08/21 09:08:55;;;;;;;7.83;3.50;;;24.30;1.00;;;;;;6245837;23;20593;-45
2023/08/21 09:11:21;;;;;;;10.50;3.23;;;24.40;1.00;;;;;;6246266;23;20515;-45
2023/08/21 09:13:50;;;;;;;11.23;3.30;;;24.40;1.00;;;;;;6246168;23;20178;-46
2023/08/21 09:16:17;;;;;;;5.83;3.17;;;24.50;1.00;;;;;;6219020;23;20283;-45
2023/08/21 09:18:47;;;;;;;11.70;4.50;;;24.60;1.00;;;;;;6245880;23;20209;-45
2023/08/21 09:21:16;;;;;;;8.33;3.43;;;24.70;1.00;;;;;;6246206;23;20155;-44
2023/08/21 09:26:09;;;;;;;8.30;3.00;;;24.80;99.90;;;;;;6184565;23;20256;-48
2023/08/21 09:28:35;;;;;;;7.73;3.23;;;24.90;99.90;;;;;;6187376;23;20157;-49
2023/08/21 09:31:02;;;;;;;5.13;2.77;;;25.10;99.90;;;;;;6187651;23;20150;-49
2023/08/21 09:33:28;;;;;;;5.07;2.73;;;25.10;1.00;;;;;;6187261;23;20153;-48
2023/08/21 09:35:54;;;;;;;6.37;3.47;;;25.20;99.90;;;;;;6186969;23;20256;-45
2023/08/21 09:38:20;;;;;;;6.87;3.40;;;25.20;99.90;;;;;;6185666;23;20168;-43
2023/08/21 09:40:54;;;;;;;8.27;2.97;;;25.20;1.00;;;;;;6185737;23;20472;-45
2023/08/21 09:43:24;;;;;;;10.07;3.23;;;25.20;1.00;;;;;;6159132;23;20161;-44
2023/08/21 09:45:57;;;;;;;5.90;3.03;;;25.20;1.00;;;;;;6186486;23;20283;-44
2023/08/21 09:48:26;;;;;;;6.47;2.97;;;25.20;99.90;;;;;;6188110;23;20142;-44
2023/08/21 09:50:53;;;;;;;7.30;3.00;;;25.30;99.90;;;;;;6187520;23;20157;-45
2023/08/21 09:53:22;;;;;;;6.63;3.27;;;25.40;99.90;;;;;;6187430;23;20481;-45
2023/08/21 09:55:53;;;;;;;9.03;3.47;;;25.50;1.00;;;;;;6160975;23;20518;-46
2023/08/21 09:58:20;;;;;;;6.13;2.77;;;25.50;99.90;;;;;;6160742;23;20152;-44
2023/08/21 10:00:48;;;;;;;6.53;2.77;;;25.50;1.00;;;;;;6160766;23;20160;-45
2023/08/21 10:03:19;;;;;;;9.10;2.93;;;25.60;1.00;;;;;;6187386;23;20480;-44
2023/08/21 10:05:47;;;;;;;9.10;3.13;;;25.70;1.00;;;;;;6186980;23;20267;-44
2023/08/21 10:08:18;;;;;;;6.10;3.10;;;25.80;1.00;;;;;;6187327;23;20231;-45
2023/08/21 10:10:43;;;;;;;10.07;2.83;;;25.80;1.00;;;;;;6187319;23;20195;-44
2023/08/21 10:13:10;;;;;;;6.33;3.07;;;25.80;70.90;;;;;;6187224;23;20595;-45
2023/08/21 10:15:38;;;;;;;6.50;3.00;;;25.80;1.00;;;;;;6161228;23;20215;-46
2023/08/21 10:18:24;;;;;;;7.05;2.75;;;25.80;1.00;;;;;;6186784;23;20161;-45
2023/08/21 10:20:50;;;;;;;9.75;2.90;;;25.80;1.00;;;;;;6160560;23;20245;-44
2023/08/21 10:23:30;;;;;;;5.20;2.70;;;25.80;99.90;;;;;;6186888;23;20211;-47
2023/08/21 10:26:00;;;;;;;7.53;2.80;;;25.70;1.00;;;;;;6186544;23;20676;-46
2023/08/21 10:28:40;;;;;;;13.40;2.78;;;25.90;1.00;;;;;;6186989;23;20172;-44
2023/08/21 10:31:25;;;;;;;7.55;3.13;;;26.10;99.90;;;;;;6187337;23;20157;-47
2023/08/21 10:33:50;;;;;;;8.20;2.55;;;26.40;99.90;;;;;;6161073;23;20583;-44
2023/08/21 10:36:39;;;;;;;12.40;2.58;;;26.50;1.00;;;;;;6186934;23;20211;-46
2023/08/21 10:39:16;;;;;;;6.95;2.70;;;26.40;1.00;;;;;;6187367;23;20215;-49
2023/08/21 10:42:00;;;;;;;6.95;2.92;;;26.30;1.00;;;;;;6188461;23;20567;-49
2023/08/21 10:44:51;;;;;;;4.60;2.78;;;26.30;1.00;;;;;;6188712;23;20231;-49
2023/08/21 10:47:46;;;;;;;6.40;2.35;;;26.20;1.00;;;;;;6209598;22;20222;-44
2023/08/21 10:50:12;;;;;;;8.60;2.75;;;26.20;99.90;;;;;;6276030;22;20155;-44
2023/08/21 10:52:44;;;;;;;6.05;2.60;;;26.40;1.00;;;;;;6278127;22;20152;-44
2023/08/21 10:55:11;;;;;;;8.02;2.85;;;26.50;99.90;;;;;;6277892;22;20186;-43
2023/08/21 10:57:37;;;;;;;5.28;2.40;;;26.50;99.90;;;;;;6277990;22;20151;-46
2023/08/21 11:00:04;;;;;;;8.48;2.63;;;26.70;1.00;;;;;;6251487;22;20253;-44
2023/08/21 11:02:31;;;;;;;8.27;3.00;;;26.70;1.00;;;;;;6277844;22;20187;-46
2023/08/21 11:04:58;;;;;;;10.30;2.67;;;26.70;7.30;;;;;;6277420;22;20175;-43
2023/08/21 11:07:25;;;;;;;6.57;2.17;;;26.70;1.00;;;;;;6277746;22;20143;-45
2023/08/21 11:09:51;;;;;;;5.97;2.75;;;26.80;1.00;;;;;;6278286;22;20151;-45
2023/08/21 11:12:19;;;;;;;11.93;3.10;;;26.80;1.00;;;;;;6277493;22;20174;-46
2023/08/21 11:14:45;;;;;;;3.47;2.20;;;26.70;99.90;;;;;;6277636;22;20205;-44
2023/08/21 11:17:11;;;;;;;5.28;2.53;;;26.70;1.00;;;;;;6277793;22;20151;-45
2023/08/21 11:19:38;;;;;;;5.05;2.53;;;26.90;99.90;;;;;;6250352;22;20163;-46
2023/08/21 11:22:05;;;;;;;7.00;2.45;;;27.00;99.90;;;;;;6250324;22;20159;-46
2023/08/21 11:24:41;;;;;;;6.65;2.35;;;27.10;1.00;;;;;;6250162;22;20186;-49
2023/08/21 11:27:12;;;;;;;6.30;2.42;;;27.10;99.90;;;;;;6264030;22;20210;-46
2023/08/21 11:32:25;;;;;;;4.28;2.33;;;27.00;99.90;;;;;;6254256;22;20191;-91
2023/08/21 11:34:55;;;;;;;4.45;2.17;;;27.10;1.00;;;;;;6252476;23;20229;-91
2023/08/21 11:37:26;;;;;;;5.07;2.00;;;27.20;1.00;;;;;;6253573;23;20160;-90
2023/08/21 11:39:57;;;;;;;6.07;2.53;;;27.30;99.90;;;;;;6253592;23;20209;-90
2023/08/21 11:42:29;;;;;;;9.35;2.63;;;27.40;99.90;;;;;;6252621;23;20167;-90
2023/08/21 11:45:02;;;;;;;5.82;2.25;;;27.40;99.90;;;;;;6253394;23;20179;-91
2023/08/21 11:47:36;;;;;;;7.05;2.45;;;27.40;99.90;;;;;;6252936;23;20160;-91
2023/08/21 11:50:07;;;;;;;8.40;2.10;;;27.40;99.90;;;;;;6253982;23;20160;-92
2023/08/21 11:54:58;;;;;;;7.43;1.73;;;27.50;1.00;;;;;;6246203;22;20211;-49
2023/08/21 11:57:24;;;;;;;7.95;2.10;;;27.60;99.90;;;;;;6246401;22;20226;-48
2023/08/21 11:59:54;;;;;;;6.47;1.83;;;27.70;99.90;;;;;;6246717;23;20171;-50
2023/08/21 12:02:28;;;;;;;10.13;2.08;;;27.60;99.90;;;;;;6246662;22;20156;-49
2023/08/21 12:04:55;;;;;;;4.55;1.73;;;27.50;99.90;;;;;;6246136;22;20199;-49
2023/08/21 12:07:20;;;;;;;5.68;1.88;;;27.40;99.90;;;;;;6246090;22;20147;-49
2023/08/21 12:09:48;;;;;;;8.18;1.80;;;27.30;99.90;;;;;;6246399;22;20151;-49
2023/08/21 12:12:15;;;;;;;5.32;2.47;;;27.30;99.90;;;;;;6246669;22;20179;-49
2023/08/21 12:14:40;;;;;;;3.70;1.50;;;27.30;99.90;;;;;;6246289;22;20168;-50
2023/08/21 12:17:07;;;;;;;4.70;1.90;;;27.40;99.90;;;;;;6246574;23;20158;-49
2023/08/21 12:19:32;;;;;;;6.57;1.90;;;27.40;99.90;;;;;;6245881;23;20164;-45
2023/08/21 12:21:59;;;;;;;4.72;1.60;;;27.40;99.90;;;;;;6246528;23;20147;-45
2023/08/21 12:27:00;;;;;;;5.55;1.50;;;27.60;99.90;;;;;;6245123;22;20215;-49
2023/08/21 12:29:26;;;;;;;4.00;1.63;;;27.60;99.90;;;;;;6246428;23;20667;-48
2023/08/21 12:31:52;;;;;;;3.50;1.88;;;27.70;99.90;;;;;;6246244;22;20151;-50
2023/08/21 12:34:18;;;;;;;4.70;1.70;;;27.60;99.90;;;;;;6244660;23;20492;-48
2023/08/21 12:36:43;;;;;;;7.38;1.83;;;27.70;99.90;;;;;;6246188;23;20166;-49
2023/08/21 12:39:10;;;;;;;3.53;1.50;;;27.70;99.90;;;;;;6245746;22;20179;-47
2023/08/21 12:41:36;;;;;;;3.15;1.58;;;27.70;99.90;;;;;;6246038;22;20185;-49
2023/08/21 12:44:08;;;;;;;3.70;1.40;;;27.70;99.90;;;;;;6246164;22;20155;-49
2023/08/21 12:46:35;;;;;;;7.13;2.10;;;27.70;99.90;;;;;;6245977;22;20231;-46
2023/08/21 12:49:02;;;;;;;4.90;1.95;;;27.90;99.90;;;;;;6244520;23;20155;-45
2023/08/21 12:51:29;;;;;;;4.32;1.50;;;28.00;99.90;;;;;;6244539;23;20233;-45
2023/08/21 12:53:55;;;;;;;7.88;1.50;;;27.90;99.90;;;;;;6246095;22;20235;-46
2023/08/21 12:56:21;;;;;;;3.50;1.23;;;27.90;99.90;;;;;;6246389;22;20186;-46
2023/08/21 12:58:47;;;;;;;3.03;1.08;;;28.10;99.90;;;;;;6245705;23;20163;-45
2023/08/21 13:01:19;;;;;;;7.15;1.60;;;28.40;99.90;;;;;;6244688;23;20217;-45
2023/08/21 13:03:46;;;;;;;3.72;1.50;;;28.50;99.90;;;;;;6246292;22;20617;-45
2023/08/21 13:06:12;;;;;;;4.75;1.60;;;28.50;99.90;;;;;;6245352;22;20176;-44
2023/08/21 13:08:38;;;;;;;4.78;1.52;;;28.40;99.90;;;;;;6246517;22;20146;-46
2023/08/21 13:11:05;;;;;;;4.60;1.50;;;28.40;99.90;;;;;;6246185;22;20290;-49
2023/08/21 13:16:00;;;;;;;4.15;1.50;;;28.40;99.90;;;;;;6156196;23;20198;-50
2023/08/21 13:18:26;;;;;;;2.67;1.27;;;28.40;99.90;;;;;;6130096;23;20185;-49
2023/08/21 13:20:51;;;;;;;5.65;1.52;;;28.50;99.90;;;;;;6158186;23;20154;-49
2023/08/21 13:23:17;;;;;;;3.28;1.33;;;28.60;99.90;;;;;;6158640;23;20236;-49
2023/08/21 13:25:43;;;;;;;3.60;1.48;;;28.70;99.90;;;;;;6157877;23;20523;-49
2023/08/21 13:28:08;;;;;;;3.60;1.20;;;28.70;99.90;;;;;;6158516;23;20142;-49
2023/08/21 13:30:34;;;;;;;3.72;1.40;;;28.80;99.90;;;;;;6157762;23;20157;-50
2023/08/21 13:33:00;;;;;;;5.32;1.40;;;28.80;99.90;;;;;;6158241;23;20158;-49
2023/08/21 13:35:26;;;;;;;5.82;1.45;;;28.80;99.90;;;;;;6157553;23;20631;-49
2023/08/21 13:37:54;;;;;;;3.15;1.48;;;28.80;99.90;;;;;;6158320;23;20154;-50
2023/08/21 13:40:36;;;;;;;4.70;1.25;;;29.00;99.90;;;;;;6157881;23;20165;-45
2023/08/21 13:43:03;;;;;;;4.90;1.30;;;29.00;99.90;;;;;;6157881;23;20165;-46
2023/08/21 13:48:04;;;;;;;4.55;1.42;;;29.00;99.90;;;;;;6214724;23;20195;-48
2023/08/21 13:50:30;;;;;;;4.05;1.38;;;28.90;99.90;;;;;;6216003;23;20495;-49
2023/08/21 13:52:56;;;;;;;4.38;1.45;;;28.90;99.90;;;;;;6217508;23;20152;-50
2023/08/21 13:55:22;;;;;;;6.55;1.52;;;28.90;99.90;;;;;;6235000;23;20214;-49
2023/08/21 14:05:33;;;;;;;5.78;1.60;;;28.70;99.90;;;;;;6251859;23;20254;-87
2023/08/21 14:07:59;;;;;;;5.53;1.63;;;28.60;99.90;;;;;;6227674;23;20246;-91
2023/08/21 14:10:25;;;;;;;5.00;1.50;;;28.60;99.90;;;;;;6251525;23;20163;-88
2023/08/21 14:12:51;;;;;;;7.35;1.83;;;28.60;99.90;;;;;;6251386;23;20159;-89
2023/08/21 14:15:18;;;;;;;2.40;1.33;;;28.50;99.90;;;;;;6250616;23;20206;-90
2023/08/21 14:17:44;;;;;;;3.97;1.60;;;28.50;99.90;;;;;;6231098;23;20164;-91
2023/08/21 14:20:10;;;;;;;4.45;1.80;;;28.50;99.90;;;;;;6259931;23;20163;-89
2023/08/21 14:22:38;;;;;;;5.30;1.55;;;28.50;99.90;;;;;;6252575;23;20159;-92
2023/08/21 14:25:05;;;;;;;5.25;2.00;;;28.50;99.90;;;;;;6252586;23;20202;-91
2023/08/21 14:27:31;;;;;;;5.88;1.50;;;28.50;99.90;;;;;;6251845;23;20239;-89
2023/08/21 14:29:57;;;;;;;4.22;2.00;;;28.50;99.90;;;;;;6252311;23;20178;-90
2023/08/21 14:32:22;;;;;;;5.88;1.50;;;28.30;99.90;;;;;;6253028;23;20156;-87
2023/08/21 14:34:48;;;;;;;10.30;2.08;;;28.10;99.90;;;;;;6251364;23;20183;-89
2023/08/21 14:37:15;;;;;;;4.90;1.50;;;28.20;99.90;;;;;;6252533;23;20550;-92
2023/08/21 14:39:42;;;;;;;3.65;1.60;;;28.20;99.90;;;;;;6252290;23;20697;-90
2023/08/21 14:42:08;;;;;;;5.20;1.33;;;28.10;99.90;;;;;;6252747;23;20159;-91
2023/08/21 14:44:34;;;;;;;3.47;1.35;;;28.10;99.90;;;;;;6252205;23;20194;-89
2023/08/21 14:47:02;;;;;;;4.63;1.80;;;28.20;99.90;;;;;;6252437;23;20179;-87
2023/08/21 14:49:27;;;;;;;3.30;1.45;;;28.40;99.90;;;;;;6253130;23;20148;-91
2023/08/21 14:51:54;;;;;;;2.67;1.50;;;28.40;99.90;;;;;;6252976;23;20159;-92
2023/08/21 14:54:20;;;;;;;4.38;1.50;;;28.30;99.90;;;;;;6253142;23;20175;-90
2023/08/21 14:56:46;;;;;;;5.05;1.55;;;28.20;99.90;;;;;;6253449;23;20166;-91
2023/08/21 14:59:12;;;;;;;6.75;1.55;;;28.10;99.90;;;;;;6253792;23;20604;-92
2023/08/21 15:01:39;;;;;;;7.63;2.10;;;28.20;99.90;;;;;;6229174;23;20163;-92
2023/08/21 15:04:05;;;;;;;4.95;1.52;;;28.20;99.90;;;;;;6253340;23;20596;-90
2023/08/21 15:06:31;;;;;;;4.32;1.83;;;28.10;99.90;;;;;;6253289;23;20191;-90
2023/08/21 15:08:56;;;;;;;5.22;1.67;;;28.10;99.90;;;;;;6253168;23;20151;-93
2023/08/21 15:11:22;;;;;;;3.78;1.30;;;28.00;99.90;;;;;;6254654;23;20191;-93
2023/08/21 15:13:48;;;;;;;5.50;1.60;;;27.90;99.90;;;;;;6255129;23;20171;-90
2023/08/21 15:16:14;;;;;;;4.18;1.70;;;27.90;99.90;;;;;;6256617;22;20179;-91
2023/08/21 15:18:40;;;;;;;2.95;1.75;;;27.80;99.90;;;;;;6229296;23;20250;-92
2023/08/21 15:21:05;;;;;;;5.32;1.88;;;27.80;99.90;;;;;;6253986;23;20169;-88
2023/08/21 15:23:31;;;;;;;3.90;1.83;;;27.80;99.90;;;;;;6253532;23;20167;-90
2023/08/21 15:25:56;;;;;;;7.60;1.63;;;27.80;99.90;;;;;;6262755;22;20564;-93
2023/08/21 15:28:22;;;;;;;5.78;2.03;;;27.20;99.90;;;;;;6253676;23;20242;-91
2023/08/21 15:30:48;;;;;;;5.60;1.55;;;27.80;99.90;;;;;;6253570;23;20155;-91
2023/08/21 15:33:13;;;;;;;4.55;1.90;;;27.80;99.90;;;;;;6252379;23;20163;-93
2023/08/21 15:35:39;;;;;;;5.20;1.90;;;27.70;99.90;;;;;;6254815;23;20175;-93
2023/08/21 15:38:05;;;;;;;7.72;1.50;;;27.60;99.90;;;;;;6254469;23;20242;-90
2023/08/21 15:40:31;;;;;;;3.20;1.63;;;27.70;99.90;;;;;;6255081;23;20170;-91
2023/08/21 15:43:01;;;;;;;7.00;1.73;;;27.70;99.90;;;;;;6251040;23;20242;-91
2023/08/21 15:45:26;;;;;;;5.07;2.00;;;27.80;99.90;;;;;;6252107;23;20265;-91
2023/08/21 15:47:52;;;;;;;3.55;1.50;;;27.80;99.90;;;;;;6259560;23;20152;-90
2023/08/21 15:50:19;;;;;;;3.50;1.55;;;27.90;99.90;;;;;;6263226;23;20151;-88
2023/08/21 15:52:45;;;;;;;3.78;1.65;;;28.00;99.90;;;;;;6252063;23;20159;-89
2023/08/21 15:55:11;;;;;;;4.40;1.70;;;28.10;99.90;;;;;;6249935;23;20183;-90
2023/08/21 15:57:37;;;;;;;6.18;2.20;;;28.10;99.90;;;;;;6249930;23;20164;-88
2023/08/21 16:00:03;;;;;;;6.22;1.90;;;28.20;99.90;;;;;;6249488;23;20166;-86
2023/08/21 16:02:29;;;;;;;4.10;1.70;;;28.20;99.90;;;;;;6250425;23;20156;-88
2023/08/21 16:04:55;;;;;;;3.72;1.67;;;28.10;99.90;;;;;;6249650;23;20277;-86
2023/08/21 16:07:21;;;;;;;7.38;1.98;;;28.10;99.90;;;;;;6249687;23;20191;-91
2023/08/21 16:09:46;;;;;;;9.68;1.90;;;28.20;99.90;;;;;;6249664;23;20190;-90
2023/08/21 16:12:12;;;;;;;4.90;1.70;;;28.20;99.90;;;;;;6249400;23;20535;-88
2023/08/21 16:14:37;;;;;;;4.38;1.55;;;28.30;99.90;;;;;;6249622;23;20175;-90
2023/08/21 16:17:03;;;;;;;3.92;1.65;;;28.30;99.90;;;;;;6249987;23;20241;-86
2023/08/21 16:19:29;;;;;;;3.95;1.65;;;28.30;99.90;;;;;;6249571;23;20187;-87
2023/08/21 16:21:54;;;;;;;7.07;2.28;;;28.30;99.90;;;;;;6252596;23;20159;-89
2023/08/21 16:24:20;;;;;;;3.00;1.60;;;28.20;99.90;;;;;;6248568;23;20179;-87
2023/08/21 16:26:46;;;;;;;3.60;1.65;;;28.10;98.30;;;;;;6224444;23;20275;-90
2023/08/21 16:29:14;;;;;;;5.93;1.65;;;28.00;99.90;;;;;;6249956;22;20152;-87
2023/08/21 16:32:13;;;;;;;5.97;1.83;;;27.80;99.90;;;;;;6224129;23;20210;-91
2023/08/21 16:34:38;;;;;;;5.32;1.55;;;27.80;98.30;;;;;;6250811;23;20229;-88
2023/08/21 16:37:04;;;;;;;3.55;1.50;;;27.70;99.90;;;;;;6223611;23;20168;-88
2023/08/21 16:39:30;;;;;;;4.40;1.30;;;27.70;99.90;;;;;;6250170;23;20156;-89
2023/08/21 16:41:56;;;;;;;7.50;1.73;;;27.80;99.90;;;;;;6249875;23;20163;-89
2023/08/21 16:44:22;;;;;;;4.45;1.90;;;28.00;99.90;;;;;;6223802;23;20248;-91
2023/08/21 16:46:51;;;;;;;5.47;1.58;;;27.90;98.70;;;;;;6249374;23;20191;-90
2023/08/21 16:49:17;;;;;;;4.85;1.45;;;27.70;99.90;;;;;;6250327;23;20159;-90
2023/08/21 16:51:43;;;;;;;3.20;1.38;;;27.60;97.90;;;;;;6250441;23;20162;-92
2023/08/21 16:54:09;;;;;;;3.67;1.45;;;27.40;93.30;;;;;;6251430;23;20151;-92
2023/08/21 16:56:36;;;;;;;3.33;1.42;;;27.30;99.90;;;;;;6254134;23;20219;-91
2023/08/21 16:59:05;;;;;;;3.58;1.48;;;27.30;96.30;;;;;;6254573;23;20171;-93
2023/08/21 17:01:32;;;;;;;6.32;1.65;;;27.20;99.90;;;;;;6253773;23;20242;-91
2023/08/21 17:03:58;;;;;;;6.15;1.58;;;27.10;99.90;;;;;;6249961;23;20186;-86
2023/08/21 17:06:24;;;;;;;8.48;1.75;;;27.20;99.90;;;;;;6252898;23;20179;-88
2023/08/21 17:08:50;;;;;;;5.53;1.27;;;27.20;99.90;;;;;;6252273;23;20235;-89
2023/08/21 17:11:17;;;;;;;6.50;1.67;;;27.10;99.90;;;;;;6253490;23;20163;-87
2023/08/21 17:13:44;;;;;;;5.43;1.90;;;27.10;99.90;;;;;;6260846;22;20178;-91
2023/08/21 17:16:11;;;;;;;7.28;2.22;;;27.00;99.90;;;;;;6256139;23;20183;-90
2023/08/21 17:18:37;;;;;;;4.65;1.48;;;26.90;99.90;;;;;;6255629;23;20183;-92
2023/08/21 17:21:03;;;;;;;4.90;1.58;;;26.90;99.90;;;;;;6254498;23;20585;-90
2023/08/21 17:23:29;;;;;;;4.13;1.70;;;26.90;99.90;;;;;;6255427;23;20227;-92
2023/08/21 17:25:54;;;;;;;4.25;1.70;;;26.80;99.90;;;;;;6253635;23;20191;-92
2023/08/21 17:28:22;;;;;;;4.95;1.58;;;26.70;99.90;;;;;;6250018;23;20209;-89
2023/08/21 17:30:48;;;;;;;3.85;1.98;;;26.50;99.90;;;;;;6250051;23;20160;-89
2023/08/21 17:33:15;;;;;;;4.43;1.73;;;26.40;99.90;;;;;;6249996;23;20182;-87
2023/08/21 17:35:41;;;;;;;5.70;1.80;;;26.50;99.90;;;;;;6250215;22;20274;-87
2023/08/21 17:38:09;;;;;;;4.28;1.70;;;26.40;99.90;;;;;;6223800;23;20163;-87
2023/08/21 17:40:36;;;;;;;5.32;1.98;;;26.40;99.90;;;;;;6250007;23;20159;-87
2023/08/21 17:43:02;;;;;;;4.65;1.58;;;26.20;99.90;;;;;;6249236;23;20160;-88
2023/08/21 17:45:29;;;;;;;5.50;2.00;;;26.20;99.90;;;;;;6248327;23;20270;-89
2023/08/21 17:47:55;;;;;;;5.83;1.93;;;26.20;99.90;;;;;;6249038;23;20167;-87
2023/08/21 17:50:21;;;;;;;3.22;1.65;;;26.10;99.90;;;;;;6249822;23;20619;-87
2023/08/21 17:52:46;;;;;;;5.80;1.73;;;26.00;99.90;;;;;;6249189;23;20155;-87
2023/08/21 17:55:12;;;;;;;6.33;1.60;;;26.00;99.90;;;;;;6223599;23;20180;-90
2023/08/21 17:57:40;;;;;;;10.90;1.93;;;25.80;99.90;;;;;;6248983;23;20210;-87
2023/08/21 18:00:09;;;;;;;13.80;2.33;;;25.80;99.90;;;;;;6249576;23;20160;-87
2023/08/21 18:02:34;;;;;;;20.30;2.10;;;25.80;99.90;;;;;;6248620;23;20164;-89
2023/08/21 18:05:06;;;;;;;8.83;2.10;;;25.70;99.90;;;;;;6247886;23;20226;-85
2023/08/21 18:07:33;;;;;;;9.00;1.80;;;25.70;99.90;;;;;;6249654;23;20506;-88
2023/08/21 18:09:59;;;;;;;5.83;1.50;;;25.60;99.90;;;;;;6249189;23;20162;-93
2023/08/21 18:12:24;;;;;;;8.00;1.97;;;25.50;99.90;;;;;;6199885;23;20246;-90
2023/08/21 18:14:50;;;;;;;8.53;2.37;;;25.40;99.90;;;;;;6255654;23;20190;-86
2023/08/21 18:17:16;;;;;;;6.80;1.90;;;25.40;99.90;;;;;;6275860;22;20140;-89
2023/08/21 18:19:42;;;;;;;4.77;1.60;;;26.80;99.90;;;;;;6275536;22;20200;-89
2023/08/21 18:22:07;;;;;;;2.93;1.37;;;25.30;99.90;;;;;;6275557;22;20143;-87
2023/08/21 18:24:33;;;;;;;7.47;1.90;;;25.20;99.90;;;;;;6275713;22;20167;-88
2023/08/21 18:26:59;;;;;;;4.63;1.47;;;25.20;99.90;;;;;;6275672;22;20184;-88
2023/08/21 18:29:25;;;;;;;4.27;1.70;;;25.10;1.00;;;;;;6275626;22;20147;-89
2023/08/21 18:31:51;;;;;;;7.67;1.83;;;25.10;1.00;;;;;;6275505;22;20219;-88
2023/08/21 18:34:16;;;;;;;5.93;1.40;;;25.00;99.90;;;;;;6259290;23;20183;-91
2023/08/21 18:36:42;;;;;;;5.23;1.80;;;25.00;1.00;;;;;;6253468;23;20191;-90
2023/08/21 18:39:07;;;;;;;4.47;1.80;;;24.80;1.00;;;;;;6254110;23;20675;-89
2023/08/21 18:41:33;;;;;;;3.77;1.60;;;24.80;1.00;;;;;;6253730;23;20160;-92
2023/08/21 18:44:00;;;;;;;3.23;1.40;;;24.70;1.00;;;;;;6253006;23;20155;-91
2023/08/21 18:46:25;;;;;;;5.13;2.07;;;24.70;1.00;;;;;;6253286;23;20191;-92
2023/08/21 18:48:51;;;;;;;3.63;1.80;;;24.50;1.00;;;;;;6253293;23;20171;-90
2023/08/21 18:51:17;;;;;;;7.47;2.00;;;24.50;1.00;;;;;;6252852;23;20662;-90
2023/08/21 18:53:43;;;;;;;4.03;1.80;;;24.40;1.00;;;;;;6254589;23;20478;-89
2023/08/21 18:56:09;;;;;;;3.97;1.60;;;24.40;1.00;;;;;;6254510;23;20183;-89
2023/08/21 18:58:37;;;;;;;6.27;1.83;;;24.30;1.00;;;;;;6253630;23;20619;-87
2023/08/21 19:01:02;;;;;;;7.90;1.80;;;24.30;1.00;;;;;;6254992;23;20163;-91
2023/08/21 19:03:28;;;;;;;5.10;2.00;;;24.20;99.90;;;;;;6227267;23;20183;-92
2023/08/21 19:05:54;;;;;;;8.23;1.90;;;24.10;99.90;;;;;;6228201;23;20269;-89
2023/08/21 19:08:20;;;;;;;3.80;1.80;;;24.10;1.00;;;;;;6255193;22;20184;-90
2023/08/21 19:10:46;;;;;;;6.73;2.43;;;23.90;1.00;;;;;;6254215;23;20155;-90
2023/08/21 19:13:14;;;;;;;9.97;2.57;;;23.90;1.00;;;;;;6255386;22;20144;-91
2023/08/21 19:15:41;;;;;;;9.73;2.23;;;23.90;1.00;;;;;;6253409;23;20175;-90
2023/08/21 19:18:06;;;;;;;8.03;1.73;;;23.80;99.90;;;;;;6253497;23;20164;-89
2023/08/21 19:20:32;;;;;;;12.10;2.07;;;23.70;1.00;;;;;;6253109;23;20167;-88
2023/08/21 19:22:58;;;;;;;7.23;2.00;;;23.70;1.00;;;;;;6227733;23;20171;-86
2023/08/21 19:25:23;;;;;;;5.13;1.93;;;23.60;99.90;;;;;;6251904;23;20194;-89
2023/08/21 19:27:49;;;;;;;8.17;1.60;;;23.60;1.00;;;;;;6251426;23;20483;-89
2023/08/21 19:30:15;;;;;;;7.33;2.13;;;23.60;1.00;;;;;;6252179;23;20159;-88
2023/08/21 19:32:42;;;;;;;5.53;1.97;;;23.40;72.70;;;;;;6251558;23;20163;-89
2023/08/21 19:35:08;;;;;;;10.17;1.73;;;23.30;17.00;;;;;;6251250;23;20171;-89
2023/08/21 19:37:34;;;;;;;6.87;1.57;;;23.20;28.60;;;;;;6251472;23;20238;-89
2023/08/21 19:40:00;;;;;;;5.60;1.83;;;23.10;1.00;;;;;;6227502;23;20209;-89
2023/08/21 19:42:25;;;;;;;3.70;1.90;;;23.10;99.90;;;;;;6253872;22;20186;-87
2023/08/21 19:44:51;;;;;;;11.00;1.67;;;23.00;1.00;;;;;;6251209;23;20183;-90
2023/08/21 19:47:17;;;;;;;5.33;1.90;;;23.00;1.00;;;;;;6251983;23;20234;-88
2023/08/21 19:49:42;;;;;;;11.17;2.83;;;22.80;99.90;;;;;;6250833;23;20182;-90
2023/08/21 19:52:08;;;;;;;9.33;1.83;;;22.70;1.00;;;;;;6251195;23;20616;-87
2023/08/21 19:54:34;;;;;;;10.37;2.10;;;22.70;1.00;;;;;;6250928;23;20176;-88
2023/08/21 19:57:00;;;;;;;11.17;2.40;;;22.60;1.00;;;;;;6253556;22;20163;-88
2023/08/21 19:59:26;;;;;;;10.77;2.00;;;22.50;1.00;;;;;;6250970;23;20166;-86
2023/08/21 20:01:51;;;;;;;6.47;1.80;;;22.50;13.00;;;;;;6251319;23;20156;-87
2023/08/21 20:04:17;;;;;;;8.50;1.90;;;22.40;99.90;;;;;;6251565;23;20199;-89
2023/08/21 20:06:42;;;;;;;4.17;1.90;;;22.20;99.90;;;;;;6251684;23;20191;-88
2023/08/21 20:09:09;;;;;;;6.37;1.77;;;22.20;99.90;;;;;;6253079;23;20206;-89
2023/08/21 20:11:35;;;;;;;10.13;2.27;;;22.20;99.90;;;;;;6253452;22;20159;-91
2023/08/21 20:14:01;;;;;;;7.67;2.30;;;22.10;99.90;;;;;;6252138;23;20277;-88
2023/08/21 20:16:27;;;;;;;6.60;1.60;;;22.10;99.90;;;;;;6250834;23;20164;-88
2023/08/21 20:18:53;;;;;;;3.67;1.87;;;22.00;1.00;;;;;;6227406;23;20185;-89
2023/08/21 20:21:20;;;;;;;7.00;1.93;;;21.80;1.00;;;;;;6251228;23;20594;-90
2023/08/21 20:23:46;;;;;;;5.77;1.70;;;21.90;1.00;;;;;;6253478;22;20175;-91
2023/08/21 20:26:11;;;;;;;3.63;1.47;;;21.70;1.00;;;;;;6251151;23;20237;-90
2023/08/21 20:28:37;;;;;;;3.00;1.70;;;22.60;1.00;;;;;;6251215;23;20182;-90
2023/08/21 20:31:04;;;;;;;6.17;1.97;;;22.80;1.00;;;;;;6251216;23;20152;-90
2023/08/21 20:33:33;;;;;;;7.00;1.73;;;23.20;1.00;;;;;;6251575;23;20215;-91
2023/08/21 20:35:59;;;;;;;11.83;1.90;;;22.00;1.00;;;;;;6251798;23;20184;-89
2023/08/21 20:38:25;;;;;;;5.13;1.70;;;21.30;1.00;;;;;;6253171;22;20167;-90
2023/08/21 20:41:00;;;;;;;4.57;1.80;;;22.60;1.00;;;;;;6251703;23;20197;-90